sensor_id;sensor_type;location;lat;lon;timestamp;temperature;humidity
23568;DHT22;11962;50.838;4.430;2023-04-24T00:00:43;11.50;99.90
23568;DHT22;11962;50.838;4.430;2023-04-24T00:03:10;11.50;99.90
23568;DHT22;11962;50.838;4.430;2023-04-24T00:05:36;11.50;99.90
23568;DHT22;11962;50.838;4.430;2023-04-24T00:08:02;11.40;99.90
23568;DHT22;11962;50.838;4.430;2023-04-24T00:10:28;11.40;99.90
23568;DHT22;11962;50.838;4.430;2023-04-24T00:12:54;11.50;99.90
23568;DHT22;11962;50.838;4.430;2023-04-24T00:15:19;11.40;99.90
23568;DHT22;11962;50.838;4.430;2023-04-24T00:17:45;11.50;99.90
23568;DHT22;11962;50.838;4.430;2023-04-24T00:20:11;11.50;99.90
23568;DHT22;11962;50.838;4.430;2023-04-24T00:22:37;11.40;99.90
23568;DHT22;11962;50.838;4.430;2023-04-24T00:25:03;11.40;99.90
23568;DHT22;11962;50.838;4.430;2023-04-24T00:27:29;11.30;99.90
23568;DHT22;11962;50.838;4.430;2023-04-24T00:29:55;11.30;99.90
23568;DHT22;11962;50.838;4.430;2023-04-24T00:32:21;11.30;99.90
23568;DHT22;11962;50.838;4.430;2023-04-24T00:34:47;11.20;99.90
23568;DHT22;11962;50.838;4.430;2023-04-24T00:37:12;11.20;99.90
23568;DHT22;11962;50.838;4.430;2023-04-24T00:39:38;11.20;99.90
23568;DHT22;11962;50.838;4.430;2023-04-24T00:42:04;11.20;99.90
23568;DHT22;11962;50.838;4.430;2023-04-24T00:44:33;11.20;99.90
23568;DHT22;11962;50.838;4.430;2023-04-24T00:46:59;11.20;99.90
23568;DHT22;11962;50.838;4.430;2023-04-24T00:49:26;11.20;99.90
23568;DHT22;11962;50.838;4.430;2023-04-24T00:51:52;11.20;99.90
23568;DHT22;11962;50.838;4.430;2023-04-24T00:54:19;11.20;99.90
23568;DHT22;11962;50.838;4.430;2023-04-24T00:56:45;11.10;99.90
23568;DHT22;11962;50.838;4.430;2023-04-24T00:59:12;11.20;99.90
23568;DHT22;11962;50.838;4.430;2023-04-24T01:01:39;11.20;99.90
23568;DHT22;11962;50.838;4.430;2023-04-24T01:04:09;11.10;99.90
23568;DHT22;11962;50.838;4.430;2023-04-24T01:06:39;11.20;99.90
23568;DHT22;11962;50.838;4.430;2023-04-24T01:09:05;11.10;99.90
23568;DHT22;11962;50.838;4.430;2023-04-24T01:11:30;11.10;99.90
23568;DHT22;11962;50.838;4.430;2023-04-24T01:13:57;11.10;99.90
23568;DHT22;11962;50.838;4.430;2023-04-24T01:16:23;11.10;99.90
23568;DHT22;11962;50.838;4.430;2023-04-24T01:18:49;11.10;99.90
23568;DHT22;11962;50.838;4.430;2023-04-24T01:21:15;11.10;99.90
23568;DHT22;11962;50.838;4.430;2023-04-24T01:23:43;11.10;99.90
23568;DHT22;11962;50.838;4.430;2023-04-24T01:26:09;11.10;99.90
23568;DHT22;11962;50.838;4.430;2023-04-24T01:28:35;11.10;99.90
23568;DHT22;11962;50.838;4.430;2023-04-24T01:31:01;11.10;99.90
23568;DHT22;11962;50.838;4.430;2023-04-24T01:33:27;11.10;99.90
23568;DHT22;11962;50.838;4.430;2023-04-24T01:35:52;11.00;99.90
23568;DHT22;11962;50.838;4.430;2023-04-24T01:38:19;10.90;99.90
23568;DHT22;11962;50.838;4.430;2023-04-24T01:40:44;10.90;99.90
23568;DHT22;11962;50.838;4.430;2023-04-24T01:43:11;10.80;99.90
23568;DHT22;11962;50.838;4.430;2023-04-24T01:45:37;10.80;99.90
23568;DHT22;11962;50.838;4.430;2023-04-24T01:48:03;10.80;99.90
23568;DHT22;11962;50.838;4.430;2023-04-24T01:50:29;10.80;99.90
23568;DHT22;11962;50.838;4.430;2023-04-24T01:52:55;10.80;99.90
23568;DHT22;11962;50.838;4.430;2023-04-24T01:55:21;10.80;99.90
23568;DHT22;11962;50.838;4.430;2023-04-24T01:57:47;10.80;99.90
23568;DHT22;11962;50.838;4.430;2023-04-24T02:00:13;10.80;99.90
23568;DHT22;11962;50.838;4.430;2023-04-24T02:02:40;10.80;99.90
23568;DHT22;11962;50.838;4.430;2023-04-24T02:05:08;10.80;99.90
23568;DHT22;11962;50.838;4.430;2023-04-24T02:07:33;10.80;99.90
23568;DHT22;11962;50.838;4.430;2023-04-24T02:09:59;10.80;99.90
23568;DHT22;11962;50.838;4.430;2023-04-24T02:12:25;10.80;99.90
23568;DHT22;11962;50.838;4.430;2023-04-24T02:14:51;10.80;99.90
23568;DHT22;11962;50.838;4.430;2023-04-24T02:17:17;10.80;99.90
23568;DHT22;11962;50.838;4.430;2023-04-24T02:19:44;10.80;99.90
23568;DHT22;11962;50.838;4.430;2023-04-24T02:22:10;10.80;99.90
23568;DHT22;11962;50.838;4.430;2023-04-24T02:24:37;10.80;99.90
23568;DHT22;11962;50.838;4.430;2023-04-24T02:27:03;10.80;99.90
23568;DHT22;11962;50.838;4.430;2023-04-24T02:29:28;10.80;99.90
23568;DHT22;11962;50.838;4.430;2023-04-24T02:31:54;10.80;99.90
23568;DHT22;11962;50.838;4.430;2023-04-24T02:34:20;10.70;99.90
23568;DHT22;11962;50.838;4.430;2023-04-24T02:36:46;10.70;99.90
23568;DHT22;11962;50.838;4.430;2023-04-24T02:39:12;10.60;99.90
23568;DHT22;11962;50.838;4.430;2023-04-24T02:41:38;10.60;99.90
23568;DHT22;11962;50.838;4.430;2023-04-24T02:44:04;10.50;99.90
23568;DHT22;11962;50.838;4.430;2023-04-24T02:46:30;10.60;99.90
23568;DHT22;11962;50.838;4.430;2023-04-24T02:48:56;10.50;99.90
23568;DHT22;11962;50.838;4.430;2023-04-24T02:51:21;10.50;99.90
23568;DHT22;11962;50.838;4.430;2023-04-24T02:53:47;10.50;99.90
23568;DHT22;11962;50.838;4.430;2023-04-24T02:56:15;10.50;99.90
23568;DHT22;11962;50.838;4.430;2023-04-24T02:58:41;10.50;99.90
23568;DHT22;11962;50.838;4.430;2023-04-24T03:01:08;10.50;99.90
23568;DHT22;11962;50.838;4.430;2023-04-24T03:03:35;10.50;99.90
23568;DHT22;11962;50.838;4.430;2023-04-24T03:06:01;10.50;99.90
23568;DHT22;11962;50.838;4.430;2023-04-24T03:08:27;10.40;99.90
23568;DHT22;11962;50.838;4.430;2023-04-24T03:10:53;10.50;99.90
23568;DHT22;11962;50.838;4.430;2023-04-24T03:13:18;10.50;99.90
23568;DHT22;11962;50.838;4.430;2023-04-24T03:15:44;10.60;99.90
23568;DHT22;11962;50.838;4.430;2023-04-24T03:18:11;10.60;99.90
23568;DHT22;11962;50.838;4.430;2023-04-24T03:20:37;10.50;99.90
23568;DHT22;11962;50.838;4.430;2023-04-24T03:23:03;10.50;99.90
23568;DHT22;11962;50.838;4.430;2023-04-24T03:25:29;10.50;99.90
23568;DHT22;11962;50.838;4.430;2023-04-24T03:27:55;10.50;99.90
23568;DHT22;11962;50.838;4.430;2023-04-24T03:30:21;10.40;99.90
23568;DHT22;11962;50.838;4.430;2023-04-24T03:32:47;10.50;99.90
23568;DHT22;11962;50.838;4.430;2023-04-24T03:35:12;10.40;99.90
23568;DHT22;11962;50.838;4.430;2023-04-24T03:37:38;10.40;99.90
23568;DHT22;11962;50.838;4.430;2023-04-24T03:40:04;10.40;99.90
23568;DHT22;11962;50.838;4.430;2023-04-24T03:42:32;10.40;99.90
23568;DHT22;11962;50.838;4.430;2023-04-24T03:44:58;10.40;99.90
23568;DHT22;11962;50.838;4.430;2023-04-24T03:47:24;10.40;99.90
23568;DHT22;11962;50.838;4.430;2023-04-24T03:49:49;10.40;99.90
23568;DHT22;11962;50.838;4.430;2023-04-24T03:52:15;10.40;99.90
23568;DHT22;11962;50.838;4.430;2023-04-24T03:54:41;10.40;99.90
23568;DHT22;11962;50.838;4.430;2023-04-24T03:57:07;10.40;99.90
23568;DHT22;11962;50.838;4.430;2023-04-24T03:59:32;10.30;99.90
23568;DHT22;11962;50.838;4.430;2023-04-24T04:01:58;10.40;99.90
23568;DHT22;11962;50.838;4.430;2023-04-24T04:04:24;10.40;99.90
23568;DHT22;11962;50.838;4.430;2023-04-24T04:06:50;10.40;99.90
23568;DHT22;11962;50.838;4.430;2023-04-24T04:09:16;10.40;99.90
23568;DHT22;11962;50.838;4.430;2023-04-24T04:11:42;10.40;99.90
23568;DHT22;11962;50.838;4.430;2023-04-24T04:14:08;10.40;99.90
23568;DHT22;11962;50.838;4.430;2023-04-24T04:16:33;10.50;99.90
23568;DHT22;11962;50.838;4.430;2023-04-24T04:18:59;10.50;99.90
23568;DHT22;11962;50.838;4.430;2023-04-24T04:21:25;10.60;99.90
23568;DHT22;11962;50.838;4.430;2023-04-24T04:23:51;10.60;99.90
23568;DHT22;11962;50.838;4.430;2023-04-24T04:26:17;10.60;99.90
23568;DHT22;11962;50.838;4.430;2023-04-24T04:28:44;10.60;99.90
23568;DHT22;11962;50.838;4.430;2023-04-24T04:31:10;10.60;99.90
23568;DHT22;11962;50.838;4.430;2023-04-24T04:33:35;10.60;99.90
23568;DHT22;11962;50.838;4.430;2023-04-24T04:36:03;10.60;99.90
23568;DHT22;11962;50.838;4.430;2023-04-24T04:38:29;10.60;99.90
23568;DHT22;11962;50.838;4.430;2023-04-24T04:40:55;10.60;99.90
23568;DHT22;11962;50.838;4.430;2023-04-24T04:43:24;10.60;99.90
23568;DHT22;11962;50.838;4.430;2023-04-24T04:45:51;10.70;99.90
23568;DHT22;11962;50.838;4.430;2023-04-24T04:48:17;10.70;99.90
23568;DHT22;11962;50.838;4.430;2023-04-24T04:50:44;10.70;99.90
23568;DHT22;11962;50.838;4.430;2023-04-24T04:53:10;10.70;99.90
23568;DHT22;11962;50.838;4.430;2023-04-24T04:55:36;10.70;99.90
23568;DHT22;11962;50.838;4.430;2023-04-24T04:58:02;10.80;99.90
23568;DHT22;11962;50.838;4.430;2023-04-24T05:00:28;10.80;99.90
23568;DHT22;11962;50.838;4.430;2023-04-24T05:02:59;10.90;99.90
23568;DHT22;11962;50.838;4.430;2023-04-24T05:05:25;10.80;99.90
23568;DHT22;11962;50.838;4.430;2023-04-24T05:07:51;10.80;99.90
23568;DHT22;11962;50.838;4.430;2023-04-24T05:10:17;10.80;99.90
23568;DHT22;11962;50.838;4.430;2023-04-24T05:12:43;10.90;99.90
23568;DHT22;11962;50.838;4.430;2023-04-24T05:15:09;10.90;99.90
23568;DHT22;11962;50.838;4.430;2023-04-24T05:17:36;11.00;99.90
23568;DHT22;11962;50.838;4.430;2023-04-24T05:20:03;11.00;99.90
23568;DHT22;11962;50.838;4.430;2023-04-24T05:22:31;10.90;99.90
23568;DHT22;11962;50.838;4.430;2023-04-24T05:24:57;10.90;99.90
23568;DHT22;11962;50.838;4.430;2023-04-24T05:27:23;10.90;99.90
23568;DHT22;11962;50.838;4.430;2023-04-24T05:29:48;10.90;99.90
23568;DHT22;11962;50.838;4.430;2023-04-24T05:32:14;10.80;99.90
23568;DHT22;11962;50.838;4.430;2023-04-24T05:34:40;10.90;99.90
23568;DHT22;11962;50.838;4.430;2023-04-24T05:37:06;10.90;99.90
23568;DHT22;11962;50.838;4.430;2023-04-24T05:39:34;10.80;99.90
23568;DHT22;11962;50.838;4.430;2023-04-24T05:42:01;10.90;99.90
23568;DHT22;11962;50.838;4.430;2023-04-24T05:44:27;10.80;99.90
23568;DHT22;11962;50.838;4.430;2023-04-24T05:46:53;10.90;99.90
23568;DHT22;11962;50.838;4.430;2023-04-24T05:49:20;10.80;99.90
23568;DHT22;11962;50.838;4.430;2023-04-24T05:51:46;10.70;99.90
23568;DHT22;11962;50.838;4.430;2023-04-24T05:54:12;10.60;99.90
23568;DHT22;11962;50.838;4.430;2023-04-24T05:56:38;10.70;99.90
23568;DHT22;11962;50.838;4.430;2023-04-24T05:59:04;10.70;99.90
23568;DHT22;11962;50.838;4.430;2023-04-24T06:01:30;10.70;99.90
23568;DHT22;11962;50.838;4.430;2023-04-24T06:03:57;10.60;99.90
23568;DHT22;11962;50.838;4.430;2023-04-24T06:06:24;10.70;99.90
23568;DHT22;11962;50.838;4.430;2023-04-24T06:08:49;10.60;99.90
23568;DHT22;11962;50.838;4.430;2023-04-24T06:11:15;10.70;99.90
23568;DHT22;11962;50.838;4.430;2023-04-24T06:13:41;10.60;99.90
23568;DHT22;11962;50.838;4.430;2023-04-24T06:16:07;10.60;99.90
23568;DHT22;11962;50.838;4.430;2023-04-24T06:18:33;10.70;99.90
23568;DHT22;11962;50.838;4.430;2023-04-24T06:20:59;10.70;99.90
23568;DHT22;11962;50.838;4.430;2023-04-24T06:23:24;10.60;99.90
23568;DHT22;11962;50.838;4.430;2023-04-24T06:25:51;10.60;99.90
23568;DHT22;11962;50.838;4.430;2023-04-24T06:28:17;10.60;99.90
23568;DHT22;11962;50.838;4.430;2023-04-24T06:30:43;10.50;99.90
23568;DHT22;11962;50.838;4.430;2023-04-24T06:33:09;10.50;99.90
23568;DHT22;11962;50.838;4.430;2023-04-24T06:35:36;10.50;99.90
23568;DHT22;11962;50.838;4.430;2023-04-24T06:38:03;10.50;99.90
23568;DHT22;11962;50.838;4.430;2023-04-24T06:40:29;10.50;99.90
23568;DHT22;11962;50.838;4.430;2023-04-24T06:42:55;10.60;99.90
23568;DHT22;11962;50.838;4.430;2023-04-24T06:45:21;10.50;99.90
23568;DHT22;11962;50.838;4.430;2023-04-24T06:47:47;10.50;99.90
23568;DHT22;11962;50.838;4.430;2023-04-24T06:50:12;10.60;99.90
23568;DHT22;11962;50.838;4.430;2023-04-24T06:52:38;10.60;99.90
23568;DHT22;11962;50.838;4.430;2023-04-24T06:55:05;10.70;99.90
23568;DHT22;11962;50.838;4.430;2023-04-24T06:57:31;10.80;99.90
23568;DHT22;11962;50.838;4.430;2023-04-24T06:59:57;11.00;99.90
23568;DHT22;11962;50.838;4.430;2023-04-24T07:02:22;11.10;99.90
23568;DHT22;11962;50.838;4.430;2023-04-24T07:04:48;11.20;99.90
23568;DHT22;11962;50.838;4.430;2023-04-24T07:07:14;11.30;99.90
23568;DHT22;11962;50.838;4.430;2023-04-24T07:09:41;11.30;99.90
23568;DHT22;11962;50.838;4.430;2023-04-24T07:12:08;11.30;99.90
23568;DHT22;11962;50.838;4.430;2023-04-24T07:14:36;11.30;99.90
23568;DHT22;11962;50.838;4.430;2023-04-24T07:17:03;11.30;99.90
23568;DHT22;11962;50.838;4.430;2023-04-24T07:19:29;11.20;99.90
23568;DHT22;11962;50.838;4.430;2023-04-24T07:21:55;11.30;99.90
23568;DHT22;11962;50.838;4.430;2023-04-24T07:24:21;11.50;99.90
23568;DHT22;11962;50.838;4.430;2023-04-24T07:26:46;11.70;99.90
23568;DHT22;11962;50.838;4.430;2023-04-24T07:29:13;12.90;99.90
23568;DHT22;11962;50.838;4.430;2023-04-24T07:31:39;13.60;99.90
23568;DHT22;11962;50.838;4.430;2023-04-24T07:34:06;13.90;99.90
23568;DHT22;11962;50.838;4.430;2023-04-24T07:36:32;14.00;99.90
23568;DHT22;11962;50.838;4.430;2023-04-24T07:38:58;13.90;99.90
23568;DHT22;11962;50.838;4.430;2023-04-24T07:41:24;13.80;99.90
23568;DHT22;11962;50.838;4.430;2023-04-24T07:43:50;13.70;99.90
23568;DHT22;11962;50.838;4.430;2023-04-24T07:46:16;13.80;99.90
23568;DHT22;11962;50.838;4.430;2023-04-24T07:48:42;14.30;99.90
23568;DHT22;11962;50.838;4.430;2023-04-24T07:51:08;14.80;99.90
23568;DHT22;11962;50.838;4.430;2023-04-24T07:53:36;14.60;99.90
23568;DHT22;11962;50.838;4.430;2023-04-24T07:56:02;14.30;99.90
23568;DHT22;11962;50.838;4.430;2023-04-24T07:58:27;13.80;99.90
23568;DHT22;11962;50.838;4.430;2023-04-24T08:00:53;13.50;99.90
23568;DHT22;11962;50.838;4.430;2023-04-24T08:03:19;13.50;99.90
23568;DHT22;11962;50.838;4.430;2023-04-24T08:05:45;13.70;99.90
23568;DHT22;11962;50.838;4.430;2023-04-24T08:08:11;13.80;99.90
23568;DHT22;11962;50.838;4.430;2023-04-24T08:10:37;13.90;99.90
23568;DHT22;11962;50.838;4.430;2023-04-24T08:13:03;14.00;99.90
23568;DHT22;11962;50.838;4.430;2023-04-24T08:15:29;14.10;99.90
23568;DHT22;11962;50.838;4.430;2023-04-24T08:17:54;14.00;99.90
23568;DHT22;11962;50.838;4.430;2023-04-24T08:20:20;13.80;99.90
23568;DHT22;11962;50.838;4.430;2023-04-24T08:22:46;13.70;99.90
23568;DHT22;11962;50.838;4.430;2023-04-24T08:25:14;13.60;99.90
23568;DHT22;11962;50.838;4.430;2023-04-24T08:27:40;13.50;99.90
23568;DHT22;11962;50.838;4.430;2023-04-24T08:30:06;13.70;99.90
23568;DHT22;11962;50.838;4.430;2023-04-24T08:32:35;14.30;99.90
23568;DHT22;11962;50.838;4.430;2023-04-24T08:35:01;15.10;99.90
23568;DHT22;11962;50.838;4.430;2023-04-24T08:37:27;15.30;99.90
23568;DHT22;11962;50.838;4.430;2023-04-24T08:39:53;15.40;99.90
23568;DHT22;11962;50.838;4.430;2023-04-24T08:42:20;15.50;99.90
23568;DHT22;11962;50.838;4.430;2023-04-24T08:44:47;15.60;99.90
23568;DHT22;11962;50.838;4.430;2023-04-24T08:47:15;15.50;99.90
23568;DHT22;11962;50.838;4.430;2023-04-24T08:49:41;15.60;99.90
23568;DHT22;11962;50.838;4.430;2023-04-24T08:52:08;16.00;99.90
23568;DHT22;11962;50.838;4.430;2023-04-24T08:54:35;18.20;99.90
23568;DHT22;11962;50.838;4.430;2023-04-24T08:57:02;21.50;99.90
23568;DHT22;11962;50.838;4.430;2023-04-24T08:59:29;22.70;99.60
23568;DHT22;11962;50.838;4.430;2023-04-24T09:01:56;22.90;97.80
23568;DHT22;11962;50.838;4.430;2023-04-24T09:04:23;24.00;95.20
23568;DHT22;11962;50.838;4.430;2023-04-24T09:06:59;24.80;91.00
23568;DHT22;11962;50.838;4.430;2023-04-24T09:09:26;23.80;89.30
23568;DHT22;11962;50.838;4.430;2023-04-24T09:11:54;23.80;89.40
23568;DHT22;11962;50.838;4.430;2023-04-24T09:14:21;25.30;81.30
23568;DHT22;11962;50.838;4.430;2023-04-24T09:16:48;26.80;76.20
23568;DHT22;11962;50.838;4.430;2023-04-24T09:19:14;26.80;71.10
23568;DHT22;11962;50.838;4.430;2023-04-24T09:21:40;26.20;70.40
23568;DHT22;11962;50.838;4.430;2023-04-24T09:24:16;25.60;69.60
23568;DHT22;11962;50.838;4.430;2023-04-24T09:26:47;24.80;71.60
23568;DHT22;11962;50.838;4.430;2023-04-24T09:29:17;25.80;68.20
23568;DHT22;11962;50.838;4.430;2023-04-24T09:31:44;25.20;69.00
23568;DHT22;11962;50.838;4.430;2023-04-24T09:34:10;24.00;71.80
23568;DHT22;11962;50.838;4.430;2023-04-24T09:36:41;22.70;74.60
23568;DHT22;11962;50.838;4.430;2023-04-24T09:39:09;21.40;78.30
23568;DHT22;11962;50.838;4.430;2023-04-24T09:41:53;20.50;80.40
23568;DHT22;11962;50.838;4.430;2023-04-24T09:44:21;19.50;83.50
23568;DHT22;11962;50.838;4.430;2023-04-24T09:46:58;19.20;85.80
23568;DHT22;11962;50.838;4.430;2023-04-24T09:49:24;18.90;87.60
23568;DHT22;11962;50.838;4.430;2023-04-24T09:52:04;18.70;87.10
23568;DHT22;11962;50.838;4.430;2023-04-24T09:54:30;20.60;86.20
23568;DHT22;11962;50.838;4.430;2023-04-24T09:56:56;22.30;77.10
23568;DHT22;11962;50.838;4.430;2023-04-24T09:59:22;22.10;76.10
23568;DHT22;11962;50.838;4.430;2023-04-24T10:01:49;21.30;76.20
23568;DHT22;11962;50.838;4.430;2023-04-24T10:04:22;20.20;78.50
23568;DHT22;11962;50.838;4.430;2023-04-24T10:06:50;19.30;81.70
23568;DHT22;11962;50.838;4.430;2023-04-24T10:09:18;18.70;84.80
23568;DHT22;11962;50.838;4.430;2023-04-24T10:11:46;18.50;85.70
23568;DHT22;11962;50.838;4.430;2023-04-24T10:14:14;18.70;85.80
23568;DHT22;11962;50.838;4.430;2023-04-24T10:16:40;18.40;84.30
23568;DHT22;11962;50.838;4.430;2023-04-24T10:19:07;18.60;85.60
23568;DHT22;11962;50.838;4.430;2023-04-24T10:21:34;18.80;84.60
23568;DHT22;11962;50.838;4.430;2023-04-24T10:24:01;18.70;83.90
23568;DHT22;11962;50.838;4.430;2023-04-24T10:26:29;18.30;83.50
23568;DHT22;11962;50.838;4.430;2023-04-24T10:28:57;18.00;84.40
23568;DHT22;11962;50.838;4.430;2023-04-24T10:31:23;17.60;86.80
23568;DHT22;11962;50.838;4.430;2023-04-24T10:33:50;17.20;88.50
23568;DHT22;11962;50.838;4.430;2023-04-24T10:36:17;16.90;90.10
23568;DHT22;11962;50.838;4.430;2023-04-24T10:38:45;16.90;90.80
23568;DHT22;11962;50.838;4.430;2023-04-24T10:41:13;16.70;90.50
23568;DHT22;11962;50.838;4.430;2023-04-24T10:43:45;17.00;91.30
23568;DHT22;11962;50.838;4.430;2023-04-24T10:46:19;18.20;89.30
23568;DHT22;11962;50.838;4.430;2023-04-24T10:48:52;18.70;87.10
23568;DHT22;11962;50.838;4.430;2023-04-24T10:51:22;18.90;86.90
23568;DHT22;11962;50.838;4.430;2023-04-24T10:53:50;21.00;83.00
23568;DHT22;11962;50.838;4.430;2023-04-24T10:56:17;21.60;77.00
23568;DHT22;11962;50.838;4.430;2023-04-24T10:58:51;21.10;76.20
23568;DHT22;11962;50.838;4.430;2023-04-24T11:01:29;20.90;77.30
23568;DHT22;11962;50.838;4.430;2023-04-24T11:04:00;20.50;78.10
23568;DHT22;11962;50.838;4.430;2023-04-24T11:06:36;19.80;78.00
23568;DHT22;11962;50.838;4.430;2023-04-24T11:09:10;19.10;80.20
23568;DHT22;11962;50.838;4.430;2023-04-24T11:11:44;18.40;82.10
23568;DHT22;11962;50.838;4.430;2023-04-24T11:14:10;18.00;84.10
23568;DHT22;11962;50.838;4.430;2023-04-24T11:16:47;17.50;85.50
23568;DHT22;11962;50.838;4.430;2023-04-24T11:24:30;17.40;88.30
23568;DHT22;11962;50.838;4.430;2023-04-24T11:35:01;18.00;86.10
23568;DHT22;11962;50.838;4.430;2023-04-24T11:37:36;18.50;85.20
23568;DHT22;11962;50.838;4.430;2023-04-24T11:40:04;19.40;83.30
23568;DHT22;11962;50.838;4.430;2023-04-24T11:42:40;19.60;80.50
23568;DHT22;11962;50.838;4.430;2023-04-24T11:45:24;19.10;79.10
23568;DHT22;11962;50.838;4.430;2023-04-24T11:47:50;19.00;80.30
23568;DHT22;11962;50.838;4.430;2023-04-24T11:50:20;18.90;79.10
23568;DHT22;11962;50.838;4.430;2023-04-24T11:52:49;18.80;80.40
23568;DHT22;11962;50.838;4.430;2023-04-24T11:58:06;18.60;80.80
23568;DHT22;11962;50.838;4.430;2023-04-24T12:00:32;18.40;82.90
23568;DHT22;11962;50.838;4.430;2023-04-24T12:03:11;18.40;82.20
23568;DHT22;11962;50.838;4.430;2023-04-24T12:05:37;18.70;83.00
23568;DHT22;11962;50.838;4.430;2023-04-24T12:08:04;18.90;81.90
23568;DHT22;11962;50.838;4.430;2023-04-24T12:10:31;18.90;81.60
23568;DHT22;11962;50.838;4.430;2023-04-24T12:12:59;18.90;81.30
23568;DHT22;11962;50.838;4.430;2023-04-24T12:15:26;18.80;79.90
23568;DHT22;11962;50.838;4.430;2023-04-24T12:17:53;18.80;80.50
23568;DHT22;11962;50.838;4.430;2023-04-24T12:20:28;18.80;80.40
23568;DHT22;11962;50.838;4.430;2023-04-24T12:22:56;19.00;80.70
23568;DHT22;11962;50.838;4.430;2023-04-24T12:25:27;19.10;80.90
23568;DHT22;11962;50.838;4.430;2023-04-24T12:28:10;19.20;80.40
23568;DHT22;11962;50.838;4.430;2023-04-24T12:30:45;19.50;81.70
23568;DHT22;11962;50.838;4.430;2023-04-24T12:33:20;19.50;80.30
23568;DHT22;11962;50.838;4.430;2023-04-24T12:35:47;19.50;79.80
23568;DHT22;11962;50.838;4.430;2023-04-24T12:38:13;19.50;80.00
23568;DHT22;11962;50.838;4.430;2023-04-24T12:40:41;19.50;77.80
23568;DHT22;11962;50.838;4.430;2023-04-24T12:43:19;19.30;77.70
23568;DHT22;11962;50.838;4.430;2023-04-24T12:45:47;19.30;77.50
23568;DHT22;11962;50.838;4.430;2023-04-24T12:48:13;19.20;76.90
23568;DHT22;11962;50.838;4.430;2023-04-24T12:50:42;19.20;77.10
23568;DHT22;11962;50.838;4.430;2023-04-24T12:53:09;19.30;77.60
23568;DHT22;11962;50.838;4.430;2023-04-24T12:55:35;19.20;77.70
23568;DHT22;11962;50.838;4.430;2023-04-24T12:58:01;19.10;77.60
23568;DHT22;11962;50.838;4.430;2023-04-24T13:00:28;18.90;77.20
23568;DHT22;11962;50.838;4.430;2023-04-24T13:02:54;18.60;78.10
23568;DHT22;11962;50.838;4.430;2023-04-24T13:05:20;18.60;79.40
23568;DHT22;11962;50.838;4.430;2023-04-24T13:07:46;18.50;78.60
23568;DHT22;11962;50.838;4.430;2023-04-24T13:10:12;18.40;78.80
23568;DHT22;11962;50.838;4.430;2023-04-24T13:12:38;18.50;80.00
23568;DHT22;11962;50.838;4.430;2023-04-24T13:15:06;18.50;78.50
23568;DHT22;11962;50.838;4.430;2023-04-24T13:17:32;18.50;79.60
23568;DHT22;11962;50.838;4.430;2023-04-24T13:19:58;18.60;79.50
23568;DHT22;11962;50.838;4.430;2023-04-24T13:22:24;18.60;79.20
23568;DHT22;11962;50.838;4.430;2023-04-24T13:24:50;18.60;79.50
23568;DHT22;11962;50.838;4.430;2023-04-24T13:27:17;18.70;79.40
23568;DHT22;11962;50.838;4.430;2023-04-24T13:29:43;18.90;79.20
23568;DHT22;11962;50.838;4.430;2023-04-24T13:32:09;19.00;78.80
23568;DHT22;11962;50.838;4.430;2023-04-24T13:34:35;19.10;78.30
23568;DHT22;11962;50.838;4.430;2023-04-24T13:37:02;19.10;79.30
23568;DHT22;11962;50.838;4.430;2023-04-24T13:39:31;18.90;77.00
23568;DHT22;11962;50.838;4.430;2023-04-24T13:41:57;18.70;76.90
23568;DHT22;11962;50.838;4.430;2023-04-24T13:44:23;18.70;77.20
23568;DHT22;11962;50.838;4.430;2023-04-24T13:46:51;18.80;77.70
23568;DHT22;11962;50.838;4.430;2023-04-24T13:49:20;19.10;77.50
23568;DHT22;11962;50.838;4.430;2023-04-24T13:51:46;19.30;77.10
23568;DHT22;11962;50.838;4.430;2023-04-24T13:54:12;19.10;76.20
23568;DHT22;11962;50.838;4.430;2023-04-24T13:56:40;19.00;76.30
23568;DHT22;11962;50.838;4.430;2023-04-24T13:59:06;18.90;77.00
23568;DHT22;11962;50.838;4.430;2023-04-24T14:01:32;18.80;77.10
23568;DHT22;11962;50.838;4.430;2023-04-24T14:03:58;18.60;77.00
23568;DHT22;11962;50.838;4.430;2023-04-24T14:06:25;18.70;76.10
23568;DHT22;11962;50.838;4.430;2023-04-24T14:08:51;18.70;75.90
23568;DHT22;11962;50.838;4.430;2023-04-24T14:11:18;18.70;75.60
23568;DHT22;11962;50.838;4.430;2023-04-24T14:13:44;18.70;75.50
23568;DHT22;11962;50.838;4.430;2023-04-24T14:16:10;18.60;74.70
23568;DHT22;11962;50.838;4.430;2023-04-24T14:18:36;18.50;74.70
23568;DHT22;11962;50.838;4.430;2023-04-24T14:21:03;18.30;75.00
23568;DHT22;11962;50.838;4.430;2023-04-24T14:23:29;18.20;74.80
23568;DHT22;11962;50.838;4.430;2023-04-24T14:25:56;18.10;74.20
23568;DHT22;11962;50.838;4.430;2023-04-24T14:28:22;18.00;74.60
23568;DHT22;11962;50.838;4.430;2023-04-24T14:30:48;18.00;74.60
23568;DHT22;11962;50.838;4.430;2023-04-24T14:33:14;18.00;74.20
23568;DHT22;11962;50.838;4.430;2023-04-24T14:35:41;17.80;74.00
23568;DHT22;11962;50.838;4.430;2023-04-24T14:38:10;17.50;74.20
23568;DHT22;11962;50.838;4.430;2023-04-24T14:40:36;17.40;75.60
23568;DHT22;11962;50.838;4.430;2023-04-24T14:43:02;17.40;76.00
23568;DHT22;11962;50.838;4.430;2023-04-24T14:45:28;17.40;75.80
23568;DHT22;11962;50.838;4.430;2023-04-24T14:47:54;17.20;77.10
23568;DHT22;11962;50.838;4.430;2023-04-24T14:50:20;17.00;78.40
23568;DHT22;11962;50.838;4.430;2023-04-24T14:52:47;16.80;79.30
23568;DHT22;11962;50.838;4.430;2023-04-24T14:55:13;16.70;79.80
23568;DHT22;11962;50.838;4.430;2023-04-24T14:57:39;16.70;80.10
23568;DHT22;11962;50.838;4.430;2023-04-24T15:00:06;16.70;80.50
23568;DHT22;11962;50.838;4.430;2023-04-24T15:02:34;16.70;80.80
23568;DHT22;11962;50.838;4.430;2023-04-24T15:05:02;16.70;81.30
23568;DHT22;11962;50.838;4.430;2023-04-24T15:07:28;16.80;80.70
23568;DHT22;11962;50.838;4.430;2023-04-24T15:09:54;16.80;80.80
23568;DHT22;11962;50.838;4.430;2023-04-24T15:12:20;17.00;80.80
23568;DHT22;11962;50.838;4.430;2023-04-24T15:14:46;17.20;80.30
23568;DHT22;11962;50.838;4.430;2023-04-24T15:17:12;17.20;79.10
23568;DHT22;11962;50.838;4.430;2023-04-24T15:19:38;17.30;79.10
23568;DHT22;11962;50.838;4.430;2023-04-24T15:22:03;17.40;78.60
23568;DHT22;11962;50.838;4.430;2023-04-24T15:24:29;17.50;78.50
23568;DHT22;11962;50.838;4.430;2023-04-24T15:26:55;17.50;78.50
23568;DHT22;11962;50.838;4.430;2023-04-24T15:29:21;17.40;78.10
23568;DHT22;11962;50.838;4.430;2023-04-24T15:31:47;17.20;78.50
23568;DHT22;11962;50.838;4.430;2023-04-24T15:34:13;17.20;78.10
23568;DHT22;11962;50.838;4.430;2023-04-24T15:36:39;17.00;77.40
23568;DHT22;11962;50.838;4.430;2023-04-24T15:39:05;17.00;78.00
23568;DHT22;11962;50.838;4.430;2023-04-24T15:41:31;17.00;78.50
23568;DHT22;11962;50.838;4.430;2023-04-24T15:43:57;17.00;78.40